sensor_id;sensor_type;location;lat;lon;timestamp;P1;durP1;ratioP1;P2;durP2;ratioP2
43363;SDS011;40636;52.424;-1.948;2023-12-28T00:02:05;16.15;;;5.20;;
43363;SDS011;40636;52.424;-1.948;2023-12-28T00:04:32;17.63;;;4.50;;
43363;SDS011;40636;52.424;-1.948;2023-12-28T00:07:02;21.05;;;5.80;;
43363;SDS011;40636;52.424;-1.948;2023-12-28T00:09:29;22.08;;;6.28;;
43363;SDS011;40636;52.424;-1.948;2023-12-28T00:11:56;21.02;;;5.38;;
43363;SDS011;40636;52.424;-1.948;2023-12-28T00:14:23;27.05;;;6.38;;
43363;SDS011;40636;52.424;-1.948;2023-12-28T00:16:50;20.77;;;5.15;;
43363;SDS011;40636;52.424;-1.948;2023-12-28T00:19:17;25.40;;;6.30;;
43363;SDS011;40636;52.424;-1.948;2023-12-28T00:21:46;20.17;;;5.80;;
43363;SDS011;40636;52.424;-1.948;2023-12-28T00:24:13;26.27;;;6.18;;
43363;SDS011;40636;52.424;-1.948;2023-12-28T00:26:41;2.88;;;1.55;;
43363;SDS011;40636;52.424;-1.948;2023-12-28T00:29:08;18.33;;;6.32;;
43363;SDS011;40636;52.424;-1.948;2023-12-28T00:31:35;22.42;;;6.75;;
43363;SDS011;40636;52.424;-1.948;2023-12-28T00:34:02;18.90;;;5.07;;
43363;SDS011;40636;52.424;-1.948;2023-12-28T00:36:29;18.80;;;5.05;;
43363;SDS011;40636;52.424;-1.948;2023-12-28T00:38:56;23.65;;;5.43;;
43363;SDS011;40636;52.424;-1.948;2023-12-28T00:41:23;24.00;;;6.35;;
43363;SDS011;40636;52.424;-1.948;2023-12-28T00:43:50;24.42;;;6.20;;
43363;SDS011;40636;52.424;-1.948;2023-12-28T00:46:17;24.55;;;5.90;;
43363;SDS011;40636;52.424;-1.948;2023-12-28T00:48:44;20.10;;;5.93;;
43363;SDS011;40636;52.424;-1.948;2023-12-28T00:51:12;19.50;;;5.97;;
43363;SDS011;40636;52.424;-1.948;2023-12-28T00:53:38;21.13;;;6.30;;
43363;SDS011;40636;52.424;-1.948;2023-12-28T00:56:05;26.77;;;6.82;;
43363;SDS011;40636;52.424;-1.948;2023-12-28T00:58:32;17.42;;;4.93;;
43363;SDS011;40636;52.424;-1.948;2023-12-28T01:00:59;19.55;;;6.32;;
43363;SDS011;40636;52.424;-1.948;2023-12-28T01:03:26;20.20;;;6.20;;
43363;SDS011;40636;52.424;-1.948;2023-12-28T01:05:53;25.33;;;5.97;;
43363;SDS011;40636;52.424;-1.948;2023-12-28T01:08:19;23.42;;;5.18;;
43363;SDS011;40636;52.424;-1.948;2023-12-28T01:10:46;20.67;;;5.90;;
43363;SDS011;40636;52.424;-1.948;2023-12-28T01:13:13;26.95;;;6.72;;
43363;SDS011;40636;52.424;-1.948;2023-12-28T01:15:40;18.33;;;5.05;;
43363;SDS011;40636;52.424;-1.948;2023-12-28T01:18:07;15.55;;;4.40;;
43363;SDS011;40636;52.424;-1.948;2023-12-28T01:20:34;22.50;;;4.88;;
43363;SDS011;40636;52.424;-1.948;2023-12-28T01:23:01;20.23;;;4.70;;
43363;SDS011;40636;52.424;-1.948;2023-12-28T01:25:28;11.45;;;4.20;;
43363;SDS011;40636;52.424;-1.948;2023-12-28T01:27:55;15.18;;;4.03;;
43363;SDS011;40636;52.424;-1.948;2023-12-28T01:30:22;19.38;;;4.70;;
43363;SDS011;40636;52.424;-1.948;2023-12-28T01:32:49;12.50;;;4.22;;
43363;SDS011;40636;52.424;-1.948;2023-12-28T01:35:16;16.02;;;4.90;;
43363;SDS011;40636;52.424;-1.948;2023-12-28T01:37:42;17.45;;;6.20;;
43363;SDS011;40636;52.424;-1.948;2023-12-28T01:40:09;18.00;;;4.88;;
43363;SDS011;40636;52.424;-1.948;2023-12-28T01:42:37;14.27;;;5.13;;
43363;SDS011;40636;52.424;-1.948;2023-12-28T01:45:04;21.48;;;4.95;;
43363;SDS011;40636;52.424;-1.948;2023-12-28T01:47:31;21.92;;;5.28;;
43363;SDS011;40636;52.424;-1.948;2023-12-28T01:49:58;19.83;;;5.22;;
43363;SDS011;40636;52.424;-1.948;2023-12-28T01:52:26;21.35;;;5.28;;
43363;SDS011;40636;52.424;-1.948;2023-12-28T01:54:54;18.02;;;5.45;;
43363;SDS011;40636;52.424;-1.948;2023-12-28T01:57:22;19.17;;;6.07;;
43363;SDS011;40636;52.424;-1.948;2023-12-28T01:59:49;19.27;;;5.78;;
43363;SDS011;40636;52.424;-1.948;2023-12-28T02:02:17;17.02;;;4.95;;
43363;SDS011;40636;52.424;-1.948;2023-12-28T02:04:44;17.73;;;4.95;;
43363;SDS011;40636;52.424;-1.948;2023-12-28T02:07:11;16.25;;;4.53;;
43363;SDS011;40636;52.424;-1.948;2023-12-28T02:09:40;18.10;;;5.00;;
43363;SDS011;40636;52.424;-1.948;2023-12-28T02:12:08;17.60;;;4.80;;
43363;SDS011;40636;52.424;-1.948;2023-12-28T02:14:35;19.20;;;5.95;;
43363;SDS011;40636;52.424;-1.948;2023-12-28T02:17:13;15.27;;;5.80;;
43363;SDS011;40636;52.424;-1.948;2023-12-28T02:20:04;18.00;;;5.03;;
43363;SDS011;40636;52.424;-1.948;2023-12-28T02:22:33;15.32;;;5.22;;
43363;SDS011;40636;52.424;-1.948;2023-12-28T02:25:08;20.63;;;4.95;;
43363;SDS011;40636;52.424;-1.948;2023-12-28T02:27:36;20.15;;;5.10;;
43363;SDS011;40636;52.424;-1.948;2023-12-28T02:30:05;17.92;;;5.25;;
43363;SDS011;40636;52.424;-1.948;2023-12-28T02:32:42;15.85;;;4.70;;
43363;SDS011;40636;52.424;-1.948;2023-12-28T02:35:37;18.77;;;5.55;;
43363;SDS011;40636;52.424;-1.948;2023-12-28T02:38:32;18.50;;;5.18;;
43363;SDS011;40636;52.424;-1.948;2023-12-28T02:41:02;20.05;;;5.63;;
43363;SDS011;40636;52.424;-1.948;2023-12-28T02:43:30;18.25;;;5.10;;
43363;SDS011;40636;52.424;-1.948;2023-12-28T02:45:58;17.05;;;5.63;;
43363;SDS011;40636;52.424;-1.948;2023-12-28T02:48:25;16.88;;;4.95;;
43363;SDS011;40636;52.424;-1.948;2023-12-28T02:50:52;22.75;;;6.45;;
43363;SDS011;40636;52.424;-1.948;2023-12-28T02:53:19;18.02;;;5.45;;
43363;SDS011;40636;52.424;-1.948;2023-12-28T02:55:46;17.88;;;6.05;;
43363;SDS011;40636;52.424;-1.948;2023-12-28T02:58:13;16.88;;;5.88;;
43363;SDS011;40636;52.424;-1.948;2023-12-28T03:00:39;20.30;;;5.80;;
43363;SDS011;40636;52.424;-1.948;2023-12-28T03:03:06;17.20;;;5.50;;
43363;SDS011;40636;52.424;-1.948;2023-12-28T03:05:33;18.88;;;5.93;;
43363;SDS011;40636;52.424;-1.948;2023-12-28T03:08:00;18.05;;;4.85;;
43363;SDS011;40636;52.424;-1.948;2023-12-28T03:10:27;19.92;;;5.00;;
43363;SDS011;40636;52.424;-1.948;2023-12-28T03:12:54;16.75;;;5.05;;
43363;SDS011;40636;52.424;-1.948;2023-12-28T03:15:21;15.27;;;5.13;;
43363;SDS011;40636;52.424;-1.948;2023-12-28T03:17:48;18.70;;;5.88;;
43363;SDS011;40636;52.424;-1.948;2023-12-28T03:20:15;15.85;;;4.53;;
43363;SDS011;40636;52.424;-1.948;2023-12-28T03:22:42;13.68;;;4.60;;
43363;SDS011;40636;52.424;-1.948;2023-12-28T03:25:09;17.83;;;5.13;;
43363;SDS011;40636;52.424;-1.948;2023-12-28T03:27:36;19.92;;;5.63;;
43363;SDS011;40636;52.424;-1.948;2023-12-28T03:30:03;17.65;;;5.05;;
43363;SDS011;40636;52.424;-1.948;2023-12-28T03:32:30;15.30;;;5.10;;
43363;SDS011;40636;52.424;-1.948;2023-12-28T03:34:57;21.85;;;5.63;;
43363;SDS011;40636;52.424;-1.948;2023-12-28T03:37:24;19.52;;;6.28;;
43363;SDS011;40636;52.424;-1.948;2023-12-28T03:39:51;21.48;;;5.32;;
43363;SDS011;40636;52.424;-1.948;2023-12-28T03:42:18;14.73;;;4.10;;
43363;SDS011;40636;52.424;-1.948;2023-12-28T03:44:45;18.05;;;5.03;;
43363;SDS011;40636;52.424;-1.948;2023-12-28T03:47:12;13.20;;;4.50;;
43363;SDS011;40636;52.424;-1.948;2023-12-28T03:49:38;20.63;;;5.93;;
43363;SDS011;40636;52.424;-1.948;2023-12-28T03:52:06;18.23;;;4.88;;
43363;SDS011;40636;52.424;-1.948;2023-12-28T03:54:32;14.10;;;4.65;;
43363;SDS011;40636;52.424;-1.948;2023-12-28T03:56:59;19.75;;;5.20;;
43363;SDS011;40636;52.424;-1.948;2023-12-28T03:59:26;22.02;;;5.13;;
43363;SDS011;40636;52.424;-1.948;2023-12-28T04:01:53;18.45;;;5.15;;
43363;SDS011;40636;52.424;-1.948;2023-12-28T04:04:20;21.08;;;5.32;;
43363;SDS011;40636;52.424;-1.948;2023-12-28T04:06:47;31.20;;;5.70;;
43363;SDS011;40636;52.424;-1.948;2023-12-28T04:09:13;23.95;;;5.97;;
43363;SDS011;40636;52.424;-1.948;2023-12-28T04:11:40;22.15;;;4.95;;
43363;SDS011;40636;52.424;-1.948;2023-12-28T04:14:08;22.23;;;4.75;;
43363;SDS011;40636;52.424;-1.948;2023-12-28T04:16:35;17.27;;;4.53;;
43363;SDS011;40636;52.424;-1.948;2023-12-28T04:19:02;16.10;;;4.82;;
43363;SDS011;40636;52.424;-1.948;2023-12-28T04:21:29;18.55;;;4.53;;
43363;SDS011;40636;52.424;-1.948;2023-12-28T04:23:56;12.77;;;3.70;;
43363;SDS011;40636;52.424;-1.948;2023-12-28T04:26:23;15.30;;;3.80;;
43363;SDS011;40636;52.424;-1.948;2023-12-28T04:28:49;14.75;;;4.13;;
43363;SDS011;40636;52.424;-1.948;2023-12-28T04:31:16;17.02;;;3.83;;
43363;SDS011;40636;52.424;-1.948;2023-12-28T04:33:43;20.27;;;4.57;;
43363;SDS011;40636;52.424;-1.948;2023-12-28T04:36:10;18.38;;;4.72;;
43363;SDS011;40636;52.424;-1.948;2023-12-28T04:38:37;14.50;;;3.90;;
43363;SDS011;40636;52.424;-1.948;2023-12-28T04:41:05;14.50;;;3.97;;
43363;SDS011;40636;52.424;-1.948;2023-12-28T04:43:32;16.67;;;4.97;;
43363;SDS011;40636;52.424;-1.948;2023-12-28T04:46:02;19.73;;;4.38;;
43363;SDS011;40636;52.424;-1.948;2023-12-28T04:48:34;21.00;;;5.72;;
43363;SDS011;40636;52.424;-1.948;2023-12-28T04:51:04;14.82;;;4.18;;
43363;SDS011;40636;52.424;-1.948;2023-12-28T04:53:31;14.85;;;4.20;;
43363;SDS011;40636;52.424;-1.948;2023-12-28T04:55:58;13.30;;;4.07;;
43363;SDS011;40636;52.424;-1.948;2023-12-28T04:58:25;17.48;;;4.07;;
43363;SDS011;40636;52.424;-1.948;2023-12-28T05:00:52;12.55;;;4.32;;
43363;SDS011;40636;52.424;-1.948;2023-12-28T05:03:19;12.05;;;3.95;;
43363;SDS011;40636;52.424;-1.948;2023-12-28T05:05:46;11.80;;;3.33;;
43363;SDS011;40636;52.424;-1.948;2023-12-28T05:08:13;15.48;;;4.25;;
43363;SDS011;40636;52.424;-1.948;2023-12-28T05:10:40;15.45;;;4.72;;
43363;SDS011;40636;52.424;-1.948;2023-12-28T05:13:06;8.52;;;3.08;;
43363;SDS011;40636;52.424;-1.948;2023-12-28T05:15:33;12.75;;;3.60;;
43363;SDS011;40636;52.424;-1.948;2023-12-28T05:18:00;13.85;;;3.65;;
43363;SDS011;40636;52.424;-1.948;2023-12-28T05:20:27;11.95;;;4.00;;
43363;SDS011;40636;52.424;-1.948;2023-12-28T05:22:54;12.23;;;3.97;;
43363;SDS011;40636;52.424;-1.948;2023-12-28T05:25:21;11.07;;;3.03;;
43363;SDS011;40636;52.424;-1.948;2023-12-28T05:27:48;13.45;;;2.67;;
43363;SDS011;40636;52.424;-1.948;2023-12-28T05:30:15;11.23;;;3.10;;
43363;SDS011;40636;52.424;-1.948;2023-12-28T05:32:42;13.45;;;3.42;;
43363;SDS011;40636;52.424;-1.948;2023-12-28T05:35:09;11.02;;;2.92;;
43363;SDS011;40636;52.424;-1.948;2023-12-28T05:37:36;9.30;;;2.78;;
43363;SDS011;40636;52.424;-1.948;2023-12-28T05:40:03;11.13;;;2.80;;
43363;SDS011;40636;52.424;-1.948;2023-12-28T05:42:30;12.45;;;2.50;;
43363;SDS011;40636;52.424;-1.948;2023-12-28T05:44:56;7.32;;;2.35;;
43363;SDS011;40636;52.424;-1.948;2023-12-28T05:47:23;8.63;;;2.75;;
43363;SDS011;40636;52.424;-1.948;2023-12-28T05:49:50;10.30;;;2.58;;
43363;SDS011;40636;52.424;-1.948;2023-12-28T05:52:18;9.93;;;2.53;;
43363;SDS011;40636;52.424;-1.948;2023-12-28T05:54:46;9.68;;;2.58;;
43363;SDS011;40636;52.424;-1.948;2023-12-28T05:57:15;11.20;;;2.65;;
43363;SDS011;40636;52.424;-1.948;2023-12-28T05:59:42;11.15;;;2.85;;
43363;SDS011;40636;52.424;-1.948;2023-12-28T06:02:09;14.15;;;3.28;;
43363;SDS011;40636;52.424;-1.948;2023-12-28T06:04:36;7.93;;;2.92;;
43363;SDS011;40636;52.424;-1.948;2023-12-28T06:07:03;9.23;;;3.00;;
43363;SDS011;40636;52.424;-1.948;2023-12-28T06:09:31;8.70;;;3.55;;
43363;SDS011;40636;52.424;-1.948;2023-12-28T06:11:58;10.82;;;3.08;;
43363;SDS011;40636;52.424;-1.948;2023-12-28T06:14:25;10.77;;;3.13;;
43363;SDS011;40636;52.424;-1.948;2023-12-28T06:16:52;10.15;;;2.63;;
43363;SDS011;40636;52.424;-1.948;2023-12-28T06:19:18;10.27;;;3.65;;
43363;SDS011;40636;52.424;-1.948;2023-12-28T06:21:45;11.90;;;3.20;;
43363;SDS011;40636;52.424;-1.948;2023-12-28T06:24:12;9.77;;;2.83;;
43363;SDS011;40636;52.424;-1.948;2023-12-28T06:26:42;7.88;;;2.58;;
43363;SDS011;40636;52.424;-1.948;2023-12-28T06:29:10;11.15;;;3.10;;
43363;SDS011;40636;52.424;-1.948;2023-12-28T06:31:37;7.32;;;2.30;;
43363;SDS011;40636;52.424;-1.948;2023-12-28T06:34:05;8.85;;;2.55;;
43363;SDS011;40636;52.424;-1.948;2023-12-28T06:36:33;4.25;;;1.65;;
43363;SDS011;40636;52.424;-1.948;2023-12-28T06:39:00;7.00;;;2.13;;
43363;SDS011;40636;52.424;-1.948;2023-12-28T06:41:27;5.82;;;2.30;;
43363;SDS011;40636;52.424;-1.948;2023-12-28T06:43:54;8.35;;;2.10;;
43363;SDS011;40636;52.424;-1.948;2023-12-28T06:46:21;8.27;;;2.28;;
43363;SDS011;40636;52.424;-1.948;2023-12-28T06:48:48;10.80;;;2.40;;
43363;SDS011;40636;52.424;-1.948;2023-12-28T06:51:21;9.70;;;3.08;;
43363;SDS011;40636;52.424;-1.948;2023-12-28T06:53:49;10.63;;;3.40;;
43363;SDS011;40636;52.424;-1.948;2023-12-28T06:56:16;10.32;;;2.85;;
43363;SDS011;40636;52.424;-1.948;2023-12-28T06:58:44;10.00;;;3.13;;
43363;SDS011;40636;52.424;-1.948;2023-12-28T07:01:11;16.08;;;3.83;;
43363;SDS011;40636;52.424;-1.948;2023-12-28T07:03:39;16.85;;;3.85;;
43363;SDS011;40636;52.424;-1.948;2023-12-28T07:06:07;13.10;;;3.45;;
43363;SDS011;40636;52.424;-1.948;2023-12-28T07:08:35;6.82;;;2.50;;
43363;SDS011;40636;52.424;-1.948;2023-12-28T07:11:03;11.00;;;2.60;;
43363;SDS011;40636;52.424;-1.948;2023-12-28T07:13:31;12.35;;;2.58;;
43363;SDS011;40636;52.424;-1.948;2023-12-28T07:15:58;5.90;;;2.00;;
43363;SDS011;40636;52.424;-1.948;2023-12-28T07:18:27;8.95;;;1.95;;
43363;SDS011;40636;52.424;-1.948;2023-12-28T07:20:55;4.30;;;1.65;;
43363;SDS011;40636;52.424;-1.948;2023-12-28T07:23:22;3.25;;;1.75;;
43363;SDS011;40636;52.424;-1.948;2023-12-28T07:25:48;7.80;;;2.38;;
43363;SDS011;40636;52.424;-1.948;2023-12-28T07:28:15;5.32;;;2.22;;
43363;SDS011;40636;52.424;-1.948;2023-12-28T07:30:42;9.55;;;2.30;;
43363;SDS011;40636;52.424;-1.948;2023-12-28T07:33:09;7.97;;;2.78;;
43363;SDS011;40636;52.424;-1.948;2023-12-28T07:35:37;9.98;;;2.85;;
43363;SDS011;40636;52.424;-1.948;2023-12-28T07:38:04;4.97;;;1.92;;
43363;SDS011;40636;52.424;-1.948;2023-12-28T07:40:30;5.97;;;2.10;;
43363;SDS011;40636;52.424;-1.948;2023-12-28T07:42:57;7.15;;;2.28;;
43363;SDS011;40636;52.424;-1.948;2023-12-28T07:45:24;7.70;;;2.25;;
43363;SDS011;40636;52.424;-1.948;2023-12-28T07:47:51;9.48;;;2.15;;
43363;SDS011;40636;52.424;-1.948;2023-12-28T07:50:19;11.15;;;3.72;;
43363;SDS011;40636;52.424;-1.948;2023-12-28T07:52:46;12.80;;;3.33;;
43363;SDS011;40636;52.424;-1.948;2023-12-28T07:55:13;7.85;;;2.50;;
43363;SDS011;40636;52.424;-1.948;2023-12-28T07:57:41;7.20;;;2.53;;
43363;SDS011;40636;52.424;-1.948;2023-12-28T08:00:08;10.40;;;3.20;;
43363;SDS011;40636;52.424;-1.948;2023-12-28T08:02:36;10.07;;;2.85;;
43363;SDS011;40636;52.424;-1.948;2023-12-28T08:05:03;11.73;;;2.72;;
43363;SDS011;40636;52.424;-1.948;2023-12-28T08:07:30;11.98;;;3.03;;
43363;SDS011;40636;52.424;-1.948;2023-12-28T08:09:57;9.30;;;2.58;;
43363;SDS011;40636;52.424;-1.948;2023-12-28T08:12:24;8.30;;;2.35;;
43363;SDS011;40636;52.424;-1.948;2023-12-28T08:14:54;5.68;;;2.05;;
43363;SDS011;40636;52.424;-1.948;2023-12-28T08:17:21;9.13;;;2.10;;
43363;SDS011;40636;52.424;-1.948;2023-12-28T08:19:48;5.18;;;2.13;;
43363;SDS011;40636;52.424;-1.948;2023-12-28T08:22:16;10.52;;;2.33;;
43363;SDS011;40636;52.424;-1.948;2023-12-28T08:24:42;5.85;;;2.20;;
43363;SDS011;40636;52.424;-1.948;2023-12-28T08:27:09;7.72;;;2.17;;
43363;SDS011;40636;52.424;-1.948;2023-12-28T08:29:36;6.28;;;2.05;;
43363;SDS011;40636;52.424;-1.948;2023-12-28T08:32:03;6.10;;;1.83;;
43363;SDS011;40636;52.424;-1.948;2023-12-28T08:34:30;6.95;;;2.05;;
43363;SDS011;40636;52.424;-1.948;2023-12-28T08:36:58;7.18;;;1.77;;
43363;SDS011;40636;52.424;-1.948;2023-12-28T08:39:25;8.15;;;1.67;;
43363;SDS011;40636;52.424;-1.948;2023-12-28T08:41:52;5.97;;;1.63;;
43363;SDS011;40636;52.424;-1.948;2023-12-28T08:44:19;6.35;;;2.80;;
43363;SDS011;40636;52.424;-1.948;2023-12-28T08:46:47;7.20;;;2.00;;
43363;SDS011;40636;52.424;-1.948;2023-12-28T08:49:14;4.95;;;1.90;;
43363;SDS011;40636;52.424;-1.948;2023-12-28T08:51:42;5.70;;;2.20;;
43363;SDS011;40636;52.424;-1.948;2023-12-28T08:54:10;6.00;;;2.22;;
43363;SDS011;40636;52.424;-1.948;2023-12-28T08:56:37;12.52;;;2.78;;
43363;SDS011;40636;52.424;-1.948;2023-12-28T08:59:04;7.80;;;2.10;;
43363;SDS011;40636;52.424;-1.948;2023-12-28T09:01:31;5.97;;;2.22;;
43363;SDS011;40636;52.424;-1.948;2023-12-28T09:03:58;9.00;;;2.70;;
43363;SDS011;40636;52.424;-1.948;2023-12-28T09:06:26;8.30;;;2.85;;
43363;SDS011;40636;52.424;-1.948;2023-12-28T09:08:54;10.00;;;2.63;;
43363;SDS011;40636;52.424;-1.948;2023-12-28T09:11:21;5.75;;;2.10;;
43363;SDS011;40636;52.424;-1.948;2023-12-28T09:13:48;7.88;;;2.00;;
43363;SDS011;40636;52.424;-1.948;2023-12-28T09:16:15;8.85;;;2.47;;
43363;SDS011;40636;52.424;-1.948;2023-12-28T09:18:42;10.15;;;2.55;;
43363;SDS011;40636;52.424;-1.948;2023-12-28T09:21:10;7.00;;;2.42;;
43363;SDS011;40636;52.424;-1.948;2023-12-28T09:23:37;12.63;;;2.85;;
43363;SDS011;40636;52.424;-1.948;2023-12-28T09:26:05;7.68;;;1.98;;
43363;SDS011;40636;52.424;-1.948;2023-12-28T09:28:33;12.88;;;3.85;;
43363;SDS011;40636;52.424;-1.948;2023-12-28T09:31:03;7.60;;;2.90;;
43363;SDS011;40636;52.424;-1.948;2023-12-28T09:33:31;10.25;;;2.60;;
43363;SDS011;40636;52.424;-1.948;2023-12-28T09:35:58;7.70;;;2.90;;
43363;SDS011;40636;52.424;-1.948;2023-12-28T09:38:26;12.68;;;3.63;;
43363;SDS011;40636;52.424;-1.948;2023-12-28T09:40:54;13.40;;;3.38;;
43363;SDS011;40636;52.424;-1.948;2023-12-28T09:43:25;11.63;;;4.10;;
43363;SDS011;40636;52.424;-1.948;2023-12-28T09:45:53;13.23;;;3.95;;
43363;SDS011;40636;52.424;-1.948;2023-12-28T09:48:21;9.93;;;3.63;;
43363;SDS011;40636;52.424;-1.948;2023-12-28T09:50:53;11.50;;;4.78;;
43363;SDS011;40636;52.424;-1.948;2023-12-28T09:53:25;14.13;;;3.35;;
43363;SDS011;40636;52.424;-1.948;2023-12-28T09:55:53;13.70;;;4.22;;
43363;SDS011;40636;52.424;-1.948;2023-12-28T09:58:20;14.27;;;4.72;;
43363;SDS011;40636;52.424;-1.948;2023-12-28T10:00:49;15.18;;;4.68;;
43363;SDS011;40636;52.424;-1.948;2023-12-28T10:03:17;17.27;;;4.97;;
43363;SDS011;40636;52.424;-1.948;2023-12-28T10:05:45;20.70;;;4.93;;
43363;SDS011;40636;52.424;-1.948;2023-12-28T10:08:14;18.73;;;5.00;;
43363;SDS011;40636;52.424;-1.948;2023-12-28T10:10:42;21.98;;;5.72;;
43363;SDS011;40636;52.424;-1.948;2023-12-28T10:13:12;27.55;;;5.75;;
43363;SDS011;40636;52.424;-1.948;2023-12-28T10:15:39;28.85;;;5.82;;
43363;SDS011;40636;52.424;-1.948;2023-12-28T10:18:06;18.65;;;6.18;;
43363;SDS011;40636;52.424;-1.948;2023-12-28T10:20:33;23.00;;;6.20;;
43363;SDS011;40636;52.424;-1.948;2023-12-28T10:23:00;23.33;;;6.25;;
43363;SDS011;40636;52.424;-1.948;2023-12-28T10:25:31;20.73;;;8.15;;
43363;SDS011;40636;52.424;-1.948;2023-12-28T10:28:05;27.92;;;6.40;;
43363;SDS011;40636;52.424;-1.948;2023-12-28T10:30:32;24.77;;;6.32;;
43363;SDS011;40636;52.424;-1.948;2023-12-28T10:33:00;30.75;;;6.80;;
43363;SDS011;40636;52.424;-1.948;2023-12-28T10:35:28;19.10;;;5.65;;
43363;SDS011;40636;52.424;-1.948;2023-12-28T10:37:55;25.52;;;7.10;;
43363;SDS011;40636;52.424;-1.948;2023-12-28T10:40:26;31.75;;;6.82;;
43363;SDS011;40636;52.424;-1.948;2023-12-28T10:43:04;24.08;;;7.20;;
43363;SDS011;40636;52.424;-1.948;2023-12-28T10:45:33;19.40;;;6.18;;
43363;SDS011;40636;52.424;-1.948;2023-12-28T10:48:09;21.00;;;6.07;;
43363;SDS011;40636;52.424;-1.948;2023-12-28T10:53:21;25.60;;;6.07;;
43363;SDS011;40636;52.424;-1.948;2023-12-28T10:59:03;24.45;;;5.35;;
43363;SDS011;40636;52.424;-1.948;2023-12-28T11:01:41;17.35;;;4.60;;
43363;SDS011;40636;52.424;-1.948;2023-12-28T11:04:14;16.42;;;5.25;;
43363;SDS011;40636;52.424;-1.948;2023-12-28T11:06:50;19.83;;;4.88;;
43363;SDS011;40636;52.424;-1.948;2023-12-28T11:09:20;19.88;;;4.88;;
43363;SDS011;40636;52.424;-1.948;2023-12-28T11:11:49;19.65;;;6.28;;
43363;SDS011;40636;52.424;-1.948;2023-12-28T11:14:17;18.42;;;5.63;;
43363;SDS011;40636;52.424;-1.948;2023-12-28T11:16:44;18.55;;;5.10;;
43363;SDS011;40636;52.424;-1.948;2023-12-28T11:19:12;20.95;;;5.65;;
43363;SDS011;40636;52.424;-1.948;2023-12-28T11:21:40;21.15;;;5.50;;
43363;SDS011;40636;52.424;-1.948;2023-12-28T11:24:08;21.48;;;6.22;;
43363;SDS011;40636;52.424;-1.948;2023-12-28T11:26:35;20.33;;;5.63;;
43363;SDS011;40636;52.424;-1.948;2023-12-28T11:29:02;16.73;;;4.72;;
43363;SDS011;40636;52.424;-1.948;2023-12-28T11:31:33;30.95;;;5.47;;
43363;SDS011;40636;52.424;-1.948;2023-12-28T11:34:03;18.45;;;6.05;;
43363;SDS011;40636;52.424;-1.948;2023-12-28T11:39:03;21.42;;;5.85;;
43363;SDS011;40636;52.424;-1.948;2023-12-28T11:41:33;22.73;;;5.75;;
43363;SDS011;40636;52.424;-1.948;2023-12-28T11:44:05;17.35;;;5.07;;
43363;SDS011;40636;52.424;-1.948;2023-12-28T11:46:32;23.27;;;5.90;;
43363;SDS011;40636;52.424;-1.948;2023-12-28T11:49:06;23.67;;;7.00;;
43363;SDS011;40636;52.424;-1.948;2023-12-28T11:51:35;27.90;;;6.70;;
43363;SDS011;40636;52.424;-1.948;2023-12-28T11:54:06;21.80;;;5.80;;
43363;SDS011;40636;52.424;-1.948;2023-12-28T11:56:33;23.15;;;5.70;;
43363;SDS011;40636;52.424;-1.948;2023-12-28T11:59:00;19.50;;;5.57;;
43363;SDS011;40636;52.424;-1.948;2023-12-28T12:01:27;24.25;;;6.35;;
43363;SDS011;40636;52.424;-1.948;2023-12-28T12:03:55;22.70;;;6.13;;
43363;SDS011;40636;52.424;-1.948;2023-12-28T12:06:22;20.27;;;4.85;;
43363;SDS011;40636;52.424;-1.948;2023-12-28T12:08:49;18.48;;;5.43;;
43363;SDS011;40636;52.424;-1.948;2023-12-28T12:11:16;18.90;;;5.07;;
43363;SDS011;40636;52.424;-1.948;2023-12-28T12:13:44;19.73;;;5.55;;
43363;SDS011;40636;52.424;-1.948;2023-12-28T12:16:15;28.60;;;6.72;;
43363;SDS011;40636;52.424;-1.948;2023-12-28T12:18:42;21.73;;;5.15;;
43363;SDS011;40636;52.424;-1.948;2023-12-28T12:21:09;17.85;;;6.07;;
43363;SDS011;40636;52.424;-1.948;2023-12-28T12:23:37;15.95;;;4.85;;
43363;SDS011;40636;52.424;-1.948;2023-12-28T12:26:06;21.33;;;5.25;;
43363;SDS011;40636;52.424;-1.948;2023-12-28T12:28:33;20.65;;;4.63;;
43363;SDS011;40636;52.424;-1.948;2023-12-28T12:31:00;24.20;;;5.25;;
43363;SDS011;40636;52.424;-1.948;2023-12-28T12:33:29;27.15;;;6.80;;
43363;SDS011;40636;52.424;-1.948;2023-12-28T12:35:57;22.00;;;5.82;;
43363;SDS011;40636;52.424;-1.948;2023-12-28T12:38:24;25.25;;;6.57;;
43363;SDS011;40636;52.424;-1.948;2023-12-28T12:40:51;17.50;;;5.10;;
43363;SDS011;40636;52.424;-1.948;2023-12-28T12:43:19;18.63;;;5.68;;
43363;SDS011;40636;52.424;-1.948;2023-12-28T12:45:47;16.67;;;5.10;;
43363;SDS011;40636;52.424;-1.948;2023-12-28T12:48:15;22.15;;;5.57;;
43363;SDS011;40636;52.424;-1.948;2023-12-28T12:50:42;22.58;;;5.22;;
43363;SDS011;40636;52.424;-1.948;2023-12-28T12:53:10;12.82;;;4.82;;
43363;SDS011;40636;52.424;-1.948;2023-12-28T12:55:38;21.25;;;4.85;;
43363;SDS011;40636;52.424;-1.948;2023-12-28T12:58:13;18.15;;;5.93;;
43363;SDS011;40636;52.424;-1.948;2023-12-28T13:00:44;16.45;;;4.95;;
43363;SDS011;40636;52.424;-1.948;2023-12-28T13:03:11;20.75;;;4.82;;
43363;SDS011;40636;52.424;-1.948;2023-12-28T13:05:38;19.20;;;5.68;;
43363;SDS011;40636;52.424;-1.948;2023-12-28T13:08:06;21.88;;;5.90;;
43363;SDS011;40636;52.424;-1.948;2023-12-28T13:10:32;24.20;;;6.57;;
43363;SDS011;40636;52.424;-1.948;2023-12-28T13:12:59;27.17;;;6.22;;
43363;SDS011;40636;52.424;-1.948;2023-12-28T13:15:28;22.60;;;6.97;;
43363;SDS011;40636;52.424;-1.948;2023-12-28T13:17:55;26.67;;;6.07;;
43363;SDS011;40636;52.424;-1.948;2023-12-28T13:20:24;18.23;;;4.22;;
43363;SDS011;40636;52.424;-1.948;2023-12-28T13:22:51;17.70;;;4.97;;
43363;SDS011;40636;52.424;-1.948;2023-12-28T13:25:19;11.13;;;3.47;;
43363;SDS011;40636;52.424;-1.948;2023-12-28T13:27:45;10.50;;;3.47;;
43363;SDS011;40636;52.424;-1.948;2023-12-28T13:30:12;8.10;;;2.17;;
43363;SDS011;40636;52.424;-1.948;2023-12-28T13:32:40;9.15;;;2.45;;
43363;SDS011;40636;52.424;-1.948;2023-12-28T13:35:07;8.77;;;2.83;;
43363;SDS011;40636;52.424;-1.948;2023-12-28T13:37:34;6.32;;;2.75;;
43363;SDS011;40636;52.424;-1.948;2023-12-28T13:40:00;4.18;;;1.63;;
43363;SDS011;40636;52.424;-1.948;2023-12-28T13:42:27;7.38;;;1.80;;
43363;SDS011;40636;52.424;-1.948;2023-12-28T13:44:54;9.13;;;1.95;;
43363;SDS011;40636;52.424;-1.948;2023-12-28T13:47:21;4.82;;;1.70;;
43363;SDS011;40636;52.424;-1.948;2023-12-28T13:49:48;8.13;;;1.38;;
43363;SDS011;40636;52.424;-1.948;2023-12-28T13:52:15;3.75;;;1.38;;
43363;SDS011;40636;52.424;-1.948;2023-12-28T13:54:41;6.10;;;1.50;;
43363;SDS011;40636;52.424;-1.948;2023-12-28T13:57:08;4.82;;;1.15;;
43363;SDS011;40636;52.424;-1.948;2023-12-28T13:59:35;3.30;;;1.23;;
43363;SDS011;40636;52.424;-1.948;2023-12-28T14:02:03;4.43;;;1.45;;
43363;SDS011;40636;52.424;-1.948;2023-12-28T14:04:30;3.05;;;0.98;;
43363;SDS011;40636;52.424;-1.948;2023-12-28T14:06:56;1.85;;;1.17;;
43363;SDS011;40636;52.424;-1.948;2023-12-28T14:09:23;3.13;;;1.48;;
43363;SDS011;40636;52.424;-1.948;2023-12-28T14:11:50;4.40;;;1.63;;
43363;SDS011;40636;52.424;-1.948;2023-12-28T14:14:17;6.00;;;1.90;;
43363;SDS011;40636;52.424;-1.948;2023-12-28T14:16:44;5.05;;;1.90;;
43363;SDS011;40636;52.424;-1.948;2023-12-28T14:19:12;4.22;;;2.00;;
43363;SDS011;40636;52.424;-1.948;2023-12-28T14:21:39;5.80;;;1.67;;
43363;SDS011;40636;52.424;-1.948;2023-12-28T14:24:07;6.38;;;1.75;;
43363;SDS011;40636;52.424;-1.948;2023-12-28T14:26:34;7.95;;;1.88;;
43363;SDS011;40636;52.424;-1.948;2023-12-28T14:29:08;4.63;;;1.30;;
43363;SDS011;40636;52.424;-1.948;2023-12-28T14:31:35;4.43;;;1.35;;
43363;SDS011;40636;52.424;-1.948;2023-12-28T14:34:02;7.20;;;1.58;;
43363;SDS011;40636;52.424;-1.948;2023-12-28T14:39:01;4.78;;;1.17;;
43363;SDS011;40636;52.424;-1.948;2023-12-28T14:41:33;5.50;;;1.73;;